Time;durP1;ratioP1;P1;durP2;ratioP2;P2;SDS_P1;SDS_P2;PMS_P1;PMS_P2;Temp;Humidity;BMP_temperature;BMP_pressure;BME280_temperature;BME280_humidity;BME280_pressure;Samples;Min_cycle;Max_cycle;Signal;HPM_P1;HPM_P2
2022/05/23 00:00:24;;;;;;;2.55;1.33;;;;;;;;;;5099451;28;20044;-88
2022/05/23 00:02:55;;;;;;;5.10;1.60;;;;;;;;;;5082449;28;20048;-91
2022/05/23 00:05:25;;;;;;;;;;;;;;;;;;5082573;28;20034;-91
2022/05/23 00:07:51;;;;;;;3.50;1.45;;;;;;;;;;5099371;28;19922;-89
2022/05/23 00:10:18;;;;;;;2.95;1.05;;;;;;;;;;5082585;28;20012;-89
2022/05/23 00:12:45;;;;;;;4.85;1.50;;;;;;;;;;5099711;28;20084;-88
2022/05/23 00:15:12;;;;;;;4.90;1.65;;;;;;;;;;5082399;28;20014;-89
2022/05/23 00:17:39;;;;;;;2.17;1.25;;;;;;;;;;5099748;28;20009;-89
2022/05/23 00:20:07;;;;;;;2.90;1.77;;;;;;;;;;5082640;28;20053;-89
2022/05/23 00:22:33;;;;;;;7.05;2.55;;;;;;;;;;5082560;28;20024;-91
2022/05/23 00:24:59;;;;;;;3.67;1.27;;;;;;;;;;5143479;23;20025;-88
2022/05/23 00:27:25;;;;;;;2.45;1.38;;;;;;;;;;5080855;28;20021;-88
2022/05/23 00:29:52;;;;;;;4.63;1.40;;;;;;;;;;5099780;28;20004;-89
2022/05/23 00:35:19;;;;;;;10.10;1.50;;;;;;;;;;5098531;28;20067;-86
2022/05/23 00:37:45;;;;;;;4.28;1.58;;;;;;;;;;5097811;28;20005;-86
2022/05/23 00:40:32;;;;;;;2.35;1.38;;;;;;;;;;5099615;28;20008;-88
2022/05/23 00:43:14;;;;;;;1.48;1.00;;;;;;;;;;5049657;28;20029;-86
2022/05/23 00:45:41;;;;;;;2.35;1.27;;;;;;;;;;5099549;28;20017;-89
2022/05/23 00:48:08;;;;;;;5.43;1.58;;;;;;;;;;5099295;28;20013;-87
2022/05/23 00:50:37;;;;;;;2.08;1.13;;;;;;;;;;5082069;28;20037;-89
2022/05/23 00:53:03;;;;;;;1.75;1.15;;;;;;;;;;5099492;28;20059;-86
2022/05/23 00:55:32;;;;;;;3.60;1.40;;;;;;;;;;5099331;28;20026;-88
2022/05/23 00:58:01;;;;;;;3.63;1.10;;;;;;;;;;5099088;28;20016;-87
2022/05/23 01:00:28;;;;;;;2.67;1.33;;;;;;;;;;5099194;28;20012;-86
2022/05/23 01:02:55;;;;;;;3.97;1.63;;;;;;;;;;5081923;28;20008;-86
2022/05/23 01:05:22;;;;;;;2.95;1.23;;;;;;;;;;5098649;28;20031;-87
2022/05/23 01:07:48;;;;;;;1.45;1.23;;;;;;;;;;5081987;28;20077;-88
2022/05/23 01:10:14;;;;;;;3.67;1.27;;;;;;;;;;5081935;28;20009;-89
2022/05/23 01:12:41;;;;;;;2.22;1.13;;;;;;;;;;5099128;28;20005;-88
2022/05/23 01:15:40;;;;;;;3.83;1.10;;;;;;;;;;5099190;28;20043;-89
2022/05/23 01:18:06;;;;;;;2.50;1.30;;;;;;;;;;5028287;28;20049;-90
2022/05/23 01:20:32;;;;;;;5.00;1.33;;;;;;;;;;5098938;28;20749;-89
2022/05/23 01:23:17;;;;;;;3.80;1.42;;;;;;;;;;5081663;28;20020;-88
2022/05/23 01:25:44;;;;;;;6.93;1.23;;;;;;;;;;5081832;28;20023;-89
2022/05/23 01:28:11;;;;;;;5.68;1.42;;;;;;;;;;5081632;28;20009;-89
2022/05/23 01:30:38;;;;;;;2.92;1.50;;;;;;;;;;5081627;28;20009;-88
2022/05/23 01:33:04;;;;;;;5.22;1.55;;;;;;;;;;5081701;28;20038;-90
2022/05/23 01:35:30;;;;;;;4.20;1.20;;;;;;;;;;5099105;28;20009;-88
2022/05/23 01:37:56;;;;;;;2.05;1.40;;;;;;;;;;5081531;28;20032;-88
2022/05/23 01:40:22;;;;;;;2.42;1.20;;;;;;;;;;5081588;28;20028;-88
2022/05/23 01:42:49;;;;;;;2.03;1.45;;;;;;;;;;5098882;28;20024;-88
2022/05/23 01:45:26;;;;;;;3.40;1.10;;;;;;;;;;5081623;28;20009;-89
2022/05/23 01:47:53;;;;;;;2.85;1.17;;;;;;;;;;5064658;28;20028;-86
2022/05/23 01:50:20;;;;;;;3.03;1.45;;;;;;;;;;5075026;28;20021;-87
2022/05/23 01:52:46;;;;;;;3.15;1.30;;;;;;;;;;5074492;28;20106;-87
2022/05/23 01:55:12;;;;;;;3.53;1.05;;;;;;;;;;5073952;28;20421;-87
2022/05/23 01:57:42;;;;;;;2.28;1.52;;;;;;;;;;5055840;28;20046;-86
2022/05/23 02:02:53;;;;;;;2.13;1.40;;;;;;;;;;5073800;28;20044;-87
2022/05/23 02:05:19;;;;;;;1.42;1.02;;;;;;;;;;5056097;28;20024;-85
2022/05/23 02:07:45;;;;;;;2.55;1.48;;;;;;;;;;5073605;28;20032;-86
2022/05/23 02:10:11;;;;;;;3.00;1.42;;;;;;;;;;5073970;28;20016;-85
2022/05/23 02:12:38;;;;;;;1.92;1.13;;;;;;;;;;5073738;28;20030;-85
2022/05/23 02:15:04;;;;;;;2.70;1.20;;;;;;;;;;5073950;28;20036;-84
2022/05/23 02:17:31;;;;;;;2.45;1.20;;;;;;;;;;5055337;28;20418;-84
2022/05/23 02:19:57;;;;;;;2.30;1.48;;;;;;;;;;5073607;28;20095;-85
2022/05/23 02:22:23;;;;;;;8.20;1.58;;;;;;;;;;5059090;28;20150;-85
2022/05/23 02:24:49;;;;;;;3.33;1.58;;;;;;;;;;5073381;28;20616;-86
2022/05/23 02:27:15;;;;;;;5.18;1.45;;;;;;;;;;5073267;28;20028;-85
2022/05/23 02:29:42;;;;;;;4.78;1.23;;;;;;;;;;5073110;28;20031;-86
2022/05/23 02:32:08;;;;;;;2.58;1.35;;;;;;;;;;5072522;28;20099;-86
2022/05/23 02:34:35;;;;;;;2.85;1.40;;;;;;;;;;5054733;28;20050;-88
2022/05/23 02:37:01;;;;;;;4.97;1.55;;;;;;;;;;5072646;28;20078;-86
2022/05/23 02:39:27;;;;;;;2.13;1.40;;;;;;;;;;5073952;28;20028;-86
2022/05/23 02:41:53;;;;;;;1.92;1.35;;;;;;;;;;5075854;28;20043;-86
2022/05/23 02:44:19;;;;;;;1.40;1.30;;;;;;;;;;5058113;28;20166;-86
2022/05/23 02:46:45;;;;;;;2.40;1.42;;;;;;;;;;5075754;28;20494;-86
2022/05/23 02:49:11;;;;;;;4.82;1.98;;;;;;;;;;5075929;28;20024;-87
2022/05/23 02:51:37;;;;;;;1.88;1.45;;;;;;;;;;5075796;28;20055;-83
2022/05/23 02:54:04;;;;;;;3.78;1.83;;;;;;;;;;5076466;28;20035;-85
2022/05/23 02:56:31;;;;;;;4.65;1.67;;;;;;;;;;5058554;28;20021;-84
2022/05/23 02:58:57;;;;;;;4.45;2.17;;;;;;;;;;5058166;28;20052;-85
2022/05/23 03:01:23;;;;;;;2.60;1.77;;;;;;;;;;5058125;28;20029;-88
2022/05/23 03:03:49;;;;;;;2.60;1.63;;;;;;;;;;5056792;28;20067;-87
2022/05/23 03:06:15;;;;;;;3.78;2.25;;;;;;;;;;5064615;28;20031;-88
2022/05/23 03:08:42;;;;;;;2.35;1.80;;;;;;;;;;5074981;28;20028;-86
2022/05/23 03:11:09;;;;;;;4.32;1.92;;;;;;;;;;5069814;28;20028;-85
2022/05/23 03:29:18;;;;;;;8.15;2.15;;;;;;;;;;5070785;23;20052;-88
2022/05/23 03:31:53;;;;;;;3.08;2.45;;;;;;;;;;5034818;28;20029;-88
2022/05/23 03:34:27;;;;;;;2.83;2.38;;;;;;;;;;5032167;28;20029;-88
2022/05/23 03:36:53;;;;;;;5.93;2.33;;;;;;;;;;5034866;28;20052;-88
2022/05/23 03:39:22;;;;;;;4.30;2.60;;;;;;;;;;5051088;28;20082;-84
2022/05/23 03:41:52;;;;;;;9.93;3.20;;;;;;;;;;5054953;28;20163;-84
2022/05/23 03:44:21;;;;;;;4.35;2.17;;;;;;;;;;5056410;28;20096;-85
2022/05/23 03:46:47;;;;;;;4.18;2.85;;;;;;;;;;5054463;28;20021;-85
2022/05/23 03:49:13;;;;;;;4.90;2.70;;;;;;;;;;5055684;28;20024;-85
2022/05/23 03:51:42;;;;;;;6.05;2.95;;;;;;;;;;5054048;28;20056;-85
2022/05/23 03:54:08;;;;;;;4.38;2.88;;;;;;;;;;5054467;28;20025;-85
2022/05/23 03:56:34;;;;;;;11.85;3.55;;;;;;;;;;5054687;28;20032;-85
2022/05/23 03:59:08;;;;;;;5.60;2.85;;;;;;;;;;5068634;28;20078;-85
2022/05/23 04:01:36;;;;;;;6.75;3.00;;;;;;;;;;5060746;28;20029;-86
2022/05/23 04:04:05;;;;;;;5.47;2.65;;;;;;;;;;5063166;28;20045;-85
2022/05/23 04:06:32;;;;;;;3.92;2.85;;;;;;;;;;5062252;28;20025;-83
2022/05/23 04:09:01;;;;;;;5.70;3.00;;;;;;;;;;5061022;28;20017;-86
2022/05/23 04:11:27;;;;;;;5.05;2.97;;;;;;;;;;5060590;28;20049;-83
2022/05/23 04:14:01;;;;;;;4.22;2.88;;;;;;;;;;5058064;28;20467;-85
2022/05/23 04:16:36;;;;;;;5.10;3.17;;;;;;;;;;5058398;28;20025;-85
2022/05/23 04:19:06;;;;;;;8.05;2.63;;;;;;;;;;5057758;28;20045;-84
2022/05/23 04:21:32;;;;;;;11.45;3.60;;;;;;;;;;5057656;28;20029;-85
2022/05/23 04:23:58;;;;;;;5.30;3.67;;;;;;;;;;5058088;28;20043;-86
2022/05/23 04:26:24;;;;;;;5.22;2.90;;;;;;;;;;5057489;28;20216;-84
2022/05/23 04:28:50;;;;;;;5.57;3.35;;;;;;;;;;5057349;28;20044;-84
2022/05/23 04:31:18;;;;;;;7.50;2.95;;;;;;;;;;5056586;28;20021;-85
2022/05/23 04:36:28;;;;;;;4.80;2.72;;;;;;;;;;5052868;28;20051;-86
2022/05/23 04:38:54;;;;;;;3.38;3.03;;;;;;;;;;5050357;28;20039;-86
2022/05/23 04:41:20;;;;;;;4.40;3.10;;;;;;;;;;5051193;28;20025;-84
2022/05/23 04:43:46;;;;;;;8.23;2.90;;;;;;;;;;5052008;28;20079;-85
2022/05/23 04:46:12;;;;;;;8.57;3.60;;;;;;;;;;5040060;28;20399;-88
2022/05/23 04:51:23;;;;;;;4.00;3.08;;;;;;;;;;5053266;28;20035;-87
2022/05/23 04:53:53;;;;;;;4.47;2.97;;;;;;;;;;5053023;28;20044;-87
2022/05/23 04:56:20;;;;;;;3.97;3.05;;;;;;;;;;5047729;28;20026;-86
2022/05/23 04:58:46;;;;;;;6.05;3.47;;;;;;;;;;5033307;28;20030;-86
2022/05/23 05:01:12;;;;;;;9.90;4.13;;;;;;;;;;5041334;28;20029;-84
2022/05/23 05:03:38;;;;;;;6.13;3.65;;;;;;;;;;5054354;28;20091;-84
2022/05/23 05:06:04;;;;;;;5.18;4.00;;;;;;;;;;5054710;28;20021;-84
2022/05/23 05:08:30;;;;;;;5.35;3.15;;;;;;;;;;5055177;28;20029;-85
2022/05/23 05:11:01;;;;;;;5.80;3.35;;;;;;;;;;5052736;28;20029;-85
2022/05/23 05:13:28;;;;;;;7.57;3.45;;;;;;;;;;5053285;28;20031;-85
2022/05/23 05:15:58;;;;;;;7.43;3.05;;;;;;;;;;5054417;28;20040;-85
2022/05/23 05:18:24;;;;;;;7.30;3.65;;;;;;;;;;5054657;28;20401;-83
2022/05/23 05:20:51;;;;;;;12.27;4.00;;;;;;;;;;5054503;28;20502;-84
2022/05/23 05:23:16;;;;;;;7.05;3.92;;;;;;;;;;5053382;28;20033;-83
2022/05/23 05:25:42;;;;;;;5.03;3.95;;;;;;;;;;5055606;28;20032;-83
2022/05/23 05:28:09;;;;;;;5.43;3.60;;;;;;;;;;5054846;28;20037;-85
2022/05/23 05:30:39;;;;;;;6.70;4.00;;;;;;;;;;5053002;28;20021;-83
2022/05/23 05:33:09;;;;;;;4.95;4.18;;;;;;;;;;5054677;28;20016;-83
2022/05/23 05:35:41;;;;;;;5.45;4.25;;;;;;;;;;5051029;28;20029;-83
2022/05/23 05:38:13;;;;;;;5.50;4.20;;;;;;;;;;5034310;28;20030;-85
2022/05/23 05:40:40;;;;;;;4.50;3.90;;;;;;;;;;5033532;28;20108;-84
2022/05/23 05:43:11;;;;;;;7.10;4.18;;;;;;;;;;5034376;28;20102;-84
2022/05/23 05:45:37;;;;;;;;;;;;;;;;;;5044408;28;20027;-84
2022/05/23 05:50:34;;;;;;;7.43;4.38;;;;;;;;;;5008364;28;20049;-85
2022/05/23 05:53:02;;;;;;;7.95;4.32;;;;;;;;;;5012685;28;20029;-84
2022/05/23 05:55:28;;;;;;;6.60;4.32;;;;;;;;;;5011085;28;20018;-85
2022/05/23 05:57:54;;;;;;;9.13;4.63;;;;;;;;;;5012145;28;20302;-85
2022/05/23 06:00:21;;;;;;;6.45;4.45;;;;;;;;;;5030177;28;20298;-85
2022/05/23 06:02:47;;;;;;;9.05;4.97;;;;;;;;;;5031914;28;20548;-85
2022/05/23 06:05:13;;;;;;;6.55;4.60;;;;;;;;;;5031632;28;20104;-85
2022/05/23 06:13:08;;;;;;;9.98;4.93;;;;;;;;;;5012005;28;20040;-85
2022/05/23 06:15:34;;;;;;;6.20;4.65;;;;;;;;;;5014183;28;20025;-85
2022/05/23 06:18:00;;;;;;;7.50;4.53;;;;;;;;;;5013946;28;20106;-85
2022/05/23 06:20:26;;;;;;;6.85;4.75;;;;;;;;;;5033748;28;20040;-85
2022/05/23 06:22:52;;;;;;;9.48;4.63;;;;;;;;;;5034891;28;20072;-84
2022/05/23 06:25:18;;;;;;;6.03;4.13;;;;;;;;;;5035446;28;20028;-85
2022/05/23 06:27:44;;;;;;;6.00;3.67;;;;;;;;;;5034480;28;20441;-85
2022/05/23 06:30:11;;;;;;;5.72;3.78;;;;;;;;;;5034777;28;20022;-84
2022/05/23 06:32:38;;;;;;;6.95;3.63;;;;;;;;;;5034945;28;20560;-85
2022/05/23 06:35:07;;;;;;;8.18;4.07;;;;;;;;;;5033969;28;20049;-85
2022/05/23 06:37:35;;;;;;;6.55;3.72;;;;;;;;;;5033482;28;20121;-85
2022/05/23 06:40:01;;;;;;;7.28;4.32;;;;;;;;;;5034955;28;20037;-85
2022/05/23 06:42:27;;;;;;;4.97;4.32;;;;;;;;;;5034848;28;20095;-85
2022/05/23 06:44:53;;;;;;;7.57;3.95;;;;;;;;;;5034729;28;20450;-85
2022/05/23 06:47:19;;;;;;;7.60;4.57;;;;;;;;;;5033021;28;20017;-85
2022/05/23 06:49:45;;;;;;;5.40;3.95;;;;;;;;;;5033135;28;20038;-86
2022/05/23 06:52:15;;;;;;;6.00;4.18;;;;;;;;;;5034346;28;20036;-86
2022/05/23 06:54:41;;;;;;;10.18;5.15;;;;;;;;;;5035094;28;20078;-85
2022/05/23 06:57:07;;;;;;;8.57;4.53;;;;;;;;;;5033993;28;20124;-86
2022/05/23 06:59:33;;;;;;;8.10;5.00;;;;;;;;;;5033855;28;20083;-85
2022/05/23 07:01:59;;;;;;;7.03;4.47;;;;;;;;;;5035480;28;20025;-85
2022/05/23 07:12:19;;;;;;;6.65;4.78;;;;;;;;;;5033967;28;20018;-85
2022/05/23 07:12:42;;;;;;;6.68;4.40;;;;;;;;;;5003838;28;20415;-86
2022/05/23 07:15:08;;;;;;;5.25;4.47;;;;;;;;;;5033258;28;20014;-86
2022/05/23 07:17:34;;;;;;;10.43;4.57;;;;;;;;;;5033913;28;20124;-86
2022/05/23 07:20:01;;;;;;;10.05;4.13;;;;;;;;;;5032708;28;20491;-86
2022/05/23 07:22:27;;;;;;;6.35;4.32;;;;;;;;;;5033931;28;20031;-86
2022/05/23 07:24:53;;;;;;;6.97;4.35;;;;;;;;;;5032437;28;20052;-86
2022/05/23 07:27:23;;;;;;;8.02;3.60;;;;;;;;;;5032742;28;20021;-86
2022/05/23 07:29:49;;;;;;;7.40;4.45;;;;;;;;;;5033106;28;20025;-86
2022/05/23 07:32:16;;;;;;;8.43;4.47;;;;;;;;;;5032595;28;20101;-85
2022/05/23 07:34:42;;;;;;;9.45;3.83;;;;;;;;;;5033794;28;20041;-86
2022/05/23 07:37:10;;;;;;;7.20;3.88;;;;;;;;;;5033991;28;20029;-85
2022/05/23 07:39:37;;;;;;;5.05;4.03;;;;;;;;;;5033520;28;20060;-85
2022/05/23 07:42:03;;;;;;;7.60;3.70;;;;;;;;;;5032143;28;20033;-85
2022/05/23 07:44:29;;;;;;;6.03;4.53;;;;;;;;;;5035387;28;20041;-84
2022/05/23 07:46:56;;;;;;;7.45;3.22;;;;;;;;;;5036530;28;20041;-85
2022/05/23 07:49:22;;;;;;;11.27;3.90;;;;;;;;;;5033950;28;20026;-86
2022/05/23 07:51:48;;;;;;;9.98;3.17;;;;;;;;;;5034224;28;20395;-85
2022/05/23 08:02:28;;;;;;;4.70;3.13;;;;;;;;;;5034777;28;20036;-85
2022/05/23 08:04:55;;;;;;;7.75;3.45;;;;;;;;;;5035110;28;20026;-86
2022/05/23 08:07:21;;;;;;;3.83;3.30;;;;;;;;;;5033940;28;20494;-86
2022/05/23 08:10:13;;;;;;;;;;;;;;;;;;;;;
2022/05/23 08:12:42;;;;;;;7.55;3.85;;;;;;;;;;5031939;28;20047;-85
2022/05/23 08:15:15;;;;;;;6.43;3.50;;;;;;;;;;5021195;28;20142;-85
2022/05/23 08:17:51;;;;;;;5.90;3.20;;;;;;;;;;5029575;28;20026;-86
2022/05/23 08:20:43;;;;;;;6.53;3.25;;;;;;;;;;5012705;28;20105;-86
2022/05/23 08:26:15;;;;;;;3.92;2.65;;;;;;;;;;5013528;28;20034;-85
2022/05/23 08:28:43;;;;;;;3.55;2.70;;;;;;;;;;5013506;28;20022;-85
2022/05/23 08:31:14;;;;;;;5.68;2.60;;;;;;;;;;5013133;28;20026;-84
2022/05/23 08:33:55;;;;;;;5.25;2.90;;;;;;;;;;5012913;28;20444;-85
2022/05/23 08:36:36;;;;;;;4.35;2.67;;;;;;;;;;5010648;28;20406;-85
2022/05/23 08:39:03;;;;;;;5.05;2.85;;;;;;;;;;5012783;28;20109;-85
2022/05/23 08:41:32;;;;;;;7.30;2.80;;;;;;;;;;5013416;28;20559;-85
2022/05/23 08:44:07;;;;;;;4.03;2.30;;;;;;;;;;5012061;28;20053;-85
2022/05/23 08:46:51;;;;;;;7.63;2.70;;;;;;;;;;5024253;28;20030;-86
2022/05/23 08:49:41;;;;;;;5.18;2.22;;;;;;;;;;5062405;22;20101;-86
2022/05/23 08:52:19;;;;;;;5.47;2.40;;;;;;;;;;4989576;28;20057;-86
2022/05/23 08:55:19;;;;;;;3.40;2.22;;;;;;;;;;4987645;28;20041;-86
2022/05/23 08:58:13;;;;;;;4.05;1.98;;;;;;;;;;4992908;28;20072;-86
2022/05/23 09:00:47;;;;;;;3.58;2.05;;;;;;;;;;4969226;28;20024;-85
2022/05/23 09:03:20;;;;;;;7.53;2.70;;;;;;;;;;4973227;28;20090;-85
2022/05/23 09:05:49;;;;;;;3.83;2.30;;;;;;;;;;4975278;28;20019;-85
2022/05/23 09:08:16;;;;;;;5.50;2.53;;;;;;;;;;4973533;28;20342;-85
2022/05/23 09:10:54;;;;;;;5.47;2.25;;;;;;;;;;4974037;28;20037;-86
2022/05/23 09:13:21;;;;;;;3.60;2.45;;;;;;;;;;4974629;28;20023;-86
2022/05/23 09:15:48;;;;;;;4.35;2.50;;;;;;;;;;4973793;28;20034;-85
2022/05/23 09:18:18;;;;;;;7.68;2.67;;;;;;;;;;4973631;28;20110;-86
2022/05/23 09:20:46;;;;;;;6.05;2.20;;;;;;;;;;4972183;28;20027;-86
2022/05/23 09:23:17;;;;;;;3.88;2.40;;;;;;;;;;4973563;28;20038;-86
2022/05/23 09:25:43;;;;;;;6.85;2.50;;;;;;;;;;4973605;28;20086;-85
2022/05/23 09:28:15;;;;;;;4.40;2.75;;;;;;;;;;4972199;28;20027;-85
2022/05/23 09:30:43;;;;;;;5.85;2.58;;;;;;;;;;4972861;28;20031;-85
2022/05/23 09:33:15;;;;;;;5.53;2.50;;;;;;;;;;4973045;28;20030;-86
2022/05/23 09:35:52;;;;;;;7.63;2.40;;;;;;;;;;4971770;28;20038;-85
2022/05/23 09:38:18;;;;;;;5.38;2.10;;;;;;;;;;4972487;28;20424;-85
2022/05/23 09:40:44;;;;;;;8.85;2.45;;;;;;;;;;4971551;28;20302;-85
2022/05/23 09:49:02;;;;;;;7.18;2.45;;;;;;;;;;4974565;28;20031;-85
2022/05/23 09:51:28;;;;;;;9.68;2.88;;;;;;;;;;4977193;28;20050;-86
2022/05/23 09:53:54;;;;;;;5.57;2.92;;;;;;;;;;4977136;28;20073;-86
2022/05/23 09:56:39;;;;;;;5.57;2.70;;;;;;;;;;4977254;28;20066;-85
2022/05/23 09:59:07;;;;;;;6.82;2.67;;;;;;;;;;4957465;28;20035;-85
2022/05/23 10:01:34;;;;;;;6.18;2.88;;;;;;;;;;4957582;28;20027;-86
2022/05/23 10:04:00;;;;;;;8.07;2.83;;;;;;;;;;4957616;28;20401;-85
2022/05/23 10:06:34;;;;;;;4.93;3.33;;;;;;;;;;4957590;28;20031;-86
2022/05/23 10:09:00;;;;;;;5.95;2.67;;;;;;;;;;4972467;28;20051;-86
2022/05/23 10:11:26;;;;;;;8.40;3.08;;;;;;;;;;4972501;28;20027;-86
2022/05/23 10:13:54;;;;;;;3.95;2.42;;;;;;;;;;4986584;28;20031;-85
2022/05/23 10:16:26;;;;;;;6.25;2.42;;;;;;;;;;4983364;28;20111;-86
2022/05/23 10:18:55;;;;;;;6.25;2.88;;;;;;;;;;4976321;28;20019;-85
2022/05/23 10:21:26;;;;;;;4.55;2.72;;;;;;;;;;4976354;28;20041;-86
2022/05/23 10:24:05;;;;;;;4.40;2.42;;;;;;;;;;4975548;28;20023;-86
2022/05/23 10:26:33;;;;;;;5.10;2.65;;;;;;;;;;4976751;28;20029;-86
2022/05/23 10:29:02;;;;;;;4.65;2.70;;;;;;;;;;4978497;28;20062;-86
2022/05/23 10:31:47;;;;;;;8.13;2.85;;;;;;;;;;4978051;28;20038;-86
2022/05/23 10:34:34;;;;;;;6.22;2.90;;;;;;;;;;4976918;28;20034;-88
2022/05/23 10:37:03;;;;;;;8.95;3.25;;;;;;;;;;4974304;28;20035;-87
2022/05/23 10:42:23;;;;;;;12.60;3.00;;;;;;;;;;4976685;28;20590;-87
2022/05/23 10:44:59;;;;;;;6.40;3.25;;;;;;;;;;4979926;28;20500;-86
2022/05/23 10:47:25;;;;;;;12.13;3.58;;;;;;;;;;4982259;28;20022;-87
2022/05/23 10:49:57;;;;;;;6.38;2.85;;;;;;;;;;4981744;28;20027;-87
2022/05/23 10:52:31;;;;;;;6.15;3.35;;;;;;;;;;4983690;28;20041;-87
2022/05/23 10:55:11;;;;;;;7.43;2.72;;;;;;;;;;4982510;28;20027;-88
2022/05/23 10:57:50;;;;;;;15.38;3.72;;;;;;;;;;4982186;28;20085;-87
2022/05/23 11:00:22;;;;;;;9.70;3.83;;;;;;;;;;4979953;28;20054;-87
2022/05/23 11:03:00;;;;;;;12.38;4.30;;;;;;;;;;4981231;28;20022;-87
2022/05/23 11:05:48;;;;;;;8.25;3.40;;;;;;;;;;4983199;28;20460;-87
2022/05/23 11:08:30;;;;;;;;;;;;;;;;;;;;;
2022/05/23 11:11:12;;;;;;;6.07;4.03;;;;;;;;;;4974485;28;20114;-86
2022/05/23 11:13:58;;;;;;;12.18;3.50;;;;;;;;;;4981428;28;20022;-87
2022/05/23 11:16:50;;;;;;;8.88;3.88;;;;;;;;;;4993050;28;20030;-87
2022/05/23 11:19:36;;;;;;;6.82;3.58;;;;;;;;;;4997515;28;20038;-88
2022/05/23 11:22:19;;;;;;;10.52;4.05;;;;;;;;;;4997624;28;20090;-88
2022/05/23 11:24:59;;;;;;;9.98;4.85;;;;;;;;;;4998370;28;20022;-88
2022/05/23 11:33:47;;;;;;;10.07;4.30;;;;;;;;;;4992220;28;20059;-86
2022/05/23 11:36:44;;;;;;;8.15;4.28;;;;;;;;;;4983513;28;20031;-87
2022/05/23 11:39:41;;;;;;;8.10;4.93;;;;;;;;;;4979870;28;20038;-86
2022/05/23 11:42:22;;;;;;;8.88;5.15;;;;;;;;;;4982013;28;20027;-87
2022/05/23 11:44:57;;;;;;;9.32;5.88;;;;;;;;;;4983364;28;20085;-86
2022/05/23 11:47:50;;;;;;;13.40;5.40;;;;;;;;;;4982022;28;20089;-87
2022/05/23 11:50:23;;;;;;;12.27;4.47;;;;;;;;;;5039854;23;20127;-86
2022/05/23 11:53:16;;;;;;;10.85;5.00;;;;;;;;;;4988410;28;20023;-85
2022/05/23 11:55:55;;;;;;;6.65;4.03;;;;;;;;;;4969702;29;20113;-87
2022/05/23 11:58:42;;;;;;;8.38;4.72;;;;;;;;;;4981097;28;20031;-87
2022/05/23 12:01:11;;;;;;;7.38;4.35;;;;;;;;;;4965828;28;20069;-87
2022/05/23 12:04:10;;;;;;;7.30;4.30;;;;;;;;;;4957875;28;20122;-87
2022/05/23 12:06:41;;;;;;;8.30;3.92;;;;;;;;;;4921275;28;20127;-87
2022/05/23 12:09:07;;;;;;;;;;;;;;;;;;4936559;29;20118;-87
2022/05/23 12:11:38;;;;;;;10.75;3.83;;;;;;;;;;4937521;29;19907;-86
2022/05/23 12:14:14;;;;;;;9.30;3.30;;;;;;;;;;4955531;29;20031;-88
2022/05/23 12:16:47;;;;;;;7.65;4.00;;;;;;;;;;4955713;28;20035;-87
2022/05/23 12:19:35;;;;;;;9.65;3.78;;;;;;;;;;4954512;28;20031;-87
2022/05/23 12:22:14;;;;;;;7.85;3.53;;;;;;;;;;4955932;28;20058;-85
2022/05/23 12:25:00;;;;;;;7.85;3.78;;;;;;;;;;4954702;28;20106;-87
2022/05/23 12:27:37;;;;;;;5.82;3.33;;;;;;;;;;4971509;28;20086;-89
2022/05/23 12:30:26;;;;;;;12.30;3.75;;;;;;;;;;4979025;28;20023;-89
2022/05/23 12:33:05;;;;;;;11.25;3.47;;;;;;;;;;4990241;28;20023;-91
2022/05/23 12:35:31;;;;;;;9.07;3.47;;;;;;;;;;4980142;28;20016;-92
2022/05/23 12:37:59;;;;;;;5.03;2.60;;;;;;;;;;4980097;28;20030;-92
2022/05/23 12:40:51;;;;;;;5.65;3.10;;;;;;;;;;4979493;28;20079;-92
2022/05/23 12:43:36;;;;;;;5.75;2.78;;;;;;;;;;4962287;28;20047;-92
2022/05/23 12:46:34;;;;;;;7.63;3.10;;;;;;;;;;4979881;28;20082;-92
2022/05/23 12:49:18;;;;;;;10.80;3.10;;;;;;;;;;4961831;28;20063;-91
2022/05/23 12:51:45;;;;;;;8.70;3.10;;;;;;;;;;4973626;28;20035;-92
2022/05/23 12:54:17;;;;;;;7.43;2.90;;;;;;;;;;4978138;28;20027;-92
2022/05/23 12:56:58;;;;;;;5.68;2.65;;;;;;;;;;4979256;28;20125;-91
2022/05/23 12:59:44;;;;;;;5.78;2.95;;;;;;;;;;4979222;28;20027;-92
2022/05/23 13:02:25;;;;;;;8.55;2.60;;;;;;;;;;4994704;28;20035;-93
2022/05/23 13:05:06;;;;;;;4.68;2.42;;;;;;;;;;4979083;28;20100;-89
2022/05/23 13:07:51;;;;;;;7.43;2.45;;;;;;;;;;4992766;28;20035;-90
2022/05/23 13:10:22;;;;;;;4.82;2.40;;;;;;;;;;4976902;28;20035;-88
2022/05/23 13:12:54;;;;;;;9.27;2.65;;;;;;;;;;4978052;28;20019;-90
2022/05/23 13:15:29;;;;;;;9.05;2.78;;;;;;;;;;4979139;28;20016;-91
2022/05/23 13:23:30;;;;;;;7.40;1.70;;;;;;;;;;4960335;28;20055;-90
2022/05/23 13:25:57;;;;;;;9.23;2.38;;;;;;;;;;4960182;28;20039;-91
2022/05/23 13:28:26;;;;;;;6.00;2.13;;;;;;;;;;4959063;28;20024;-91
2022/05/23 13:31:12;;;;;;;8.25;2.47;;;;;;;;;;4959409;28;20020;-93
2022/05/23 13:33:46;;;;;;;9.43;2.65;;;;;;;;;;4959418;28;20024;-91
2022/05/23 13:36:16;;;;;;;9.23;2.53;;;;;;;;;;4960059;28;20019;-92
2022/05/23 13:38:57;;;;;;;8.30;2.30;;;;;;;;;;4959523;28;20040;-93
2022/05/23 13:41:28;;;;;;;10.90;2.60;;;;;;;;;;4959962;28;20032;-91
2022/05/23 13:43:56;;;;;;;8.85;2.88;;;;;;;;;;4959618;28;20004;-91
2022/05/23 13:46:36;;;;;;;8.77;2.13;;;;;;;;;;4960073;28;20023;-93
2022/05/23 13:49:08;;;;;;;11.07;2.70;;;;;;;;;;4957138;28;20020;-92
2022/05/23 13:51:51;;;;;;;9.65;2.65;;;;;;;;;;4958024;28;20271;-91
2022/05/23 13:54:29;;;;;;;10.55;2.50;;;;;;;;;;4957288;28;20052;-91
2022/05/23 13:57:16;;;;;;;13.55;3.15;;;;;;;;;;4957341;28;20100;-91
2022/05/23 13:59:44;;;;;;;8.43;3.17;;;;;;;;;;4975100;28;20016;-92
2022/05/23 14:02:14;;;;;;;9.15;2.75;;;;;;;;;;4959197;28;20048;-91
2022/05/23 14:04:44;;;;;;;13.10;2.55;;;;;;;;;;4975706;28;20016;-93
2022/05/23 14:07:16;;;;;;;8.80;2.95;;;;;;;;;;4975238;28;20016;-92
2022/05/23 14:09:52;;;;;;;11.85;3.33;;;;;;;;;;4959589;28;20040;-93
2022/05/23 14:12:21;;;;;;;15.57;3.05;;;;;;;;;;4959771;28;20075;-91
2022/05/23 14:14:59;;;;;;;12.75;2.50;;;;;;;;;;4960000;28;20039;-92
2022/05/23 14:17:33;;;;;;;7.90;3.00;;;;;;;;;;4975184;28;20030;-92
2022/05/23 14:20:19;;;;;;;10.45;2.65;;;;;;;;;;4975238;28;20048;-91
2022/05/23 14:22:59;;;;;;;5.90;2.78;;;;;;;;;;4959649;28;20295;-92
2022/05/23 14:25:28;;;;;;;11.93;2.83;;;;;;;;;;4977901;28;20023;-90
2022/05/23 14:28:04;;;;;;;6.82;2.40;;;;;;;;;;4978319;28;20038;-91
2022/05/23 14:30:35;;;;;;;7.82;2.70;;;;;;;;;;4977629;28;20016;-93
2022/05/23 14:33:35;;;;;;;;;;;;;;;;;;4977865;28;20095;-88
2022/05/23 14:36:00;;;;;;;7.45;2.47;;;;;;;;;;4979942;28;19922;-91
2022/05/23 14:38:29;;;;;;;11.52;2.72;;;;;;;;;;4981644;28;20038;-92
2022/05/23 14:41:15;;;;;;;10.48;2.88;;;;;;;;;;4980998;28;20042;-91
2022/05/23 14:43:44;;;;;;;8.73;2.45;;;;;;;;;;4981422;28;20026;-92
2022/05/23 14:49:15;;;;;;;17.05;3.65;;;;;;;;;;4973781;28;20099;-89
2022/05/23 14:51:42;;;;;;;11.38;2.55;;;;;;;;;;4980407;28;20096;-89
2022/05/23 15:02:56;;;;;;;8.53;2.50;;;;;;;;;;4957262;29;20138;-88
2022/05/23 15:05:22;;;;;;;4.82;1.85;;;;;;;;;;4955962;28;20082;-88
2022/05/23 15:07:58;;;;;;;10.70;2.47;;;;;;;;;;4957465;28;20042;-86
2022/05/23 15:10:27;;;;;;;10.18;2.38;;;;;;;;;;4955913;28;20033;-85
2022/05/23 15:13:03;;;;;;;9.32;1.90;;;;;;;;;;4957489;28;20027;-86
2022/05/23 15:15:37;;;;;;;7.40;1.98;;;;;;;;;;4957253;29;20494;-87
2022/05/23 15:18:05;;;;;;;8.00;2.40;;;;;;;;;;4954772;29;20031;-87
2022/05/23 15:20:35;;;;;;;9.70;1.77;;;;;;;;;;4956954;28;20031;-88
2022/05/23 15:23:03;;;;;;;5.68;1.75;;;;;;;;;;4957232;28;20050;-87
2022/05/23 15:25:29;;;;;;;6.65;2.22;;;;;;;;;;4955811;28;20023;-88
2022/05/23 15:28:08;;;;;;;6.03;1.73;;;;;;;;;;4956682;28;20393;-88
2022/05/23 15:30:37;;;;;;;5.75;1.90;;;;;;;;;;4955218;28;20034;-86
2022/05/23 15:33:14;;;;;;;4.57;2.08;;;;;;;;;;4956952;28;20156;-89
2022/05/23 15:35:40;;;;;;;11.98;2.15;;;;;;;;;;4954739;28;20074;-89
2022/05/23 15:38:14;;;;;;;7.97;1.80;;;;;;;;;;4956341;28;20473;-87
2022/05/23 15:40:46;;;;;;;6.63;1.65;;;;;;;;;;4962983;28;20023;-88
2022/05/23 15:43:14;;;;;;;9.73;2.30;;;;;;;;;;4954725;29;20031;-90
2022/05/23 15:45:46;;;;;;;6.88;2.05;;;;;;;;;;4954752;28;20518;-88
2022/05/23 15:48:17;;;;;;;6.95;2.20;;;;;;;;;;4955056;29;20032;-88
2022/05/23 15:50:45;;;;;;;6.97;2.03;;;;;;;;;;4955208;28;20027;-86
2022/05/23 15:53:11;;;;;;;5.63;1.70;;;;;;;;;;4952521;28;20046;-84
2022/05/23 15:55:41;;;;;;;5.30;1.83;;;;;;;;;;4956533;28;20106;-85
2022/05/23 15:58:08;;;;;;;6.53;1.52;;;;;;;;;;4955574;28;20034;-86
2022/05/23 16:00:35;;;;;;;9.77;2.05;;;;;;;;;;4966639;28;20034;-85
2022/05/23 16:03:04;;;;;;;5.07;1.75;;;;;;;;;;4947183;28;20548;-84
2022/05/23 16:05:31;;;;;;;10.45;2.22;;;;;;;;;;4942491;29;20027;-85
2022/05/23 16:07:57;;;;;;;4.38;1.92;;;;;;;;;;4955697;28;20050;-85
2022/05/23 16:10:23;;;;;;;8.30;1.50;;;;;;;;;;4962454;28;20481;-84
2022/05/23 16:12:55;;;;;;;7.00;1.70;;;;;;;;;;4959591;28;20137;-85
2022/05/23 16:15:22;;;;;;;9.43;2.50;;;;;;;;;;4968965;28;20574;-84
2022/05/23 16:17:50;;;;;;;3.60;1.55;;;;;;;;;;4959534;28;20034;-84
2022/05/23 16:20:17;;;;;;;13.18;2.35;;;;;;;;;;4961475;28;20027;-85
2022/05/23 16:22:44;;;;;;;7.43;2.00;;;;;;;;;;4959262;28;20402;-84
2022/05/23 16:25:11;;;;;;;8.13;3.03;;;;;;;;;;4974834;28;20038;-84
2022/05/23 16:27:38;;;;;;;4.65;1.95;;;;;;;;;;4961148;28;20031;-85
2022/05/23 16:30:04;;;;;;;19.38;2.60;;;;;;;;;;4959343;28;20098;-84
2022/05/23 16:37:59;;;;;;;5.07;1.30;;;;;;;;;;4961966;29;20508;-84